De Pue, Illinois
Current Conditions -  °F | °C
As of 6:15 AM on Thursday 18 Dec 2014 (Local Time) from KVYS Reporting Station
Clear Clear  
Wind Chill: 21°   Ceiling: Unl
Heat Index: 21°   Visibility: 10mi
Dew Point: 18°   Wind: 3mph
Humidity: 88%   Direction: 330°NNW
Pressure: 30.3"   Gusts: NA
Location:  41.3278°N, 89.2998°W
Report Text: KVYS 181215Z AUTO 33003KT 10SM CLR M06/M08 A3030 RMK AO2 T10631080
Loading
Personal Weather Stations






























Interactive Weather Map New forecast layout! Learn more

10-Day Weather Forecast

Advertisements
Track Severe Weather on mobile